Time;durP1;ratioP1;P1;durP2;ratioP2;P2;SDS_P1;SDS_P2;PMS_P1;PMS_P2;Temp;Humidity;BMP_temperature;BMP_pressure;BME280_temperature;BME280_humidity;BME280_pressure;Samples;Min_cycle;Max_cycle;Signal;HPM_P1;HPM_P2
2021/06/30 00:01:54;;;;;;;9.30;6.40;;;691.60;2176.00;;;;;;5074198;28;20024;-74
2021/06/30 00:04:20;;;;;;;10.93;6.80;;;691.70;2150.40;;;;;;5073331;28;20025;-73
2021/06/30 00:06:46;;;;;;;10.23;6.50;;;691.60;2176.00;;;;;;5074231;28;20466;-75
2021/06/30 00:09:18;;;;;;;9.10;6.47;;;691.60;2176.00;;;;;;5074221;28;20020;-75
2021/06/30 00:11:44;;;;;;;9.80;6.78;;;691.60;2176.00;;;;;;5074205;28;20082;-75
2021/06/30 00:14:10;;;;;;;8.45;6.40;;;691.50;2176.00;;;;;;5074072;28;20031;-80
2021/06/30 00:16:37;;;;;;;13.40;6.85;;;691.50;2176.00;;;;;;5074058;28;20020;-75
2021/06/30 00:19:06;;;;;;;10.85;6.47;;;691.50;2176.00;;;;;;5074143;28;20146;-78
2021/06/30 00:21:32;;;;;;;11.17;6.63;;;691.50;2176.00;;;;;;5073783;28;20016;-75
2021/06/30 00:23:58;;;;;;;14.73;7.00;;;691.50;2201.60;;;;;;5073892;28;20027;-73
2021/06/30 00:26:24;;;;;;;12.73;7.00;;;691.50;2201.60;;;;;;5073817;28;20040;-77
2021/06/30 00:28:49;;;;;;;14.55;7.82;;;691.40;2227.20;;;;;;5073830;28;20479;-75
2021/06/30 00:31:16;;;;;;;10.38;7.40;;;691.20;2252.80;;;;;;5074042;28;20071;-75
2021/06/30 00:33:43;;;;;;;15.55;7.80;;;666.40;2252.80;;;;;;5073789;28;20430;-75
2021/06/30 00:36:08;;;;;;;12.82;7.32;;;666.30;2278.40;;;;;;5073905;28;20032;-78
2021/06/30 00:38:34;;;;;;;10.45;7.43;;;666.20;2278.40;;;;;;5073578;28;20403;-79
2021/06/30 00:41:00;;;;;;;14.27;7.28;;;666.30;2278.40;;;;;;5073631;28;20108;-75
2021/06/30 00:43:25;;;;;;;10.10;7.50;;;666.30;2278.40;;;;;;5073635;28;20103;-76
2021/06/30 00:45:51;;;;;;;11.70;8.00;;;666.20;2278.40;;;;;;5073606;28;20021;-74
2021/06/30 00:48:17;;;;;;;11.55;7.63;;;666.20;2278.40;;;;;;5073569;28;20099;-78
2021/06/30 00:50:43;;;;;;;13.63;7.80;;;666.20;2304.00;;;;;;5073289;28;20074;-75
2021/06/30 00:53:09;;;;;;;11.20;7.72;;;666.20;2304.00;;;;;;5073760;28;20490;-75
2021/06/30 00:55:34;;;;;;;12.10;7.57;;;666.10;2304.00;;;;;;5073502;28;20021;-75
2021/06/30 00:58:00;;;;;;;11.10;7.43;;;666.20;2304.00;;;;;;5073309;28;20392;-75
2021/06/30 01:00:26;;;;;;;11.88;7.57;;;666.20;2304.00;;;;;;5073425;28;20081;-75
2021/06/30 01:02:52;;;;;;;11.63;7.50;;;666.20;2304.00;;;;;;5073003;28;20115;-78
2021/06/30 01:05:17;;;;;;;14.52;8.02;;;666.20;2304.00;;;;;;5073106;28;20025;-79
2021/06/30 01:07:46;;;;;;;14.88;8.10;;;666.20;2304.00;;;;;;5072990;28;20422;-74
2021/06/30 01:10:12;;;;;;;11.40;8.13;;;666.10;2329.60;;;;;;5072992;28;20029;-79
2021/06/30 01:12:38;;;;;;;12.85;8.10;;;666.10;2329.60;;;;;;5072877;28;20070;-82
2021/06/30 01:15:08;;;;;;;12.55;7.95;;;666.00;2329.60;;;;;;5073107;28;20078;-74
2021/06/30 01:17:34;;;;;;;13.45;8.07;;;666.00;2329.60;;;;;;5072822;28;20024;-79
2021/06/30 01:20:01;;;;;;;19.00;8.82;;;666.00;2355.20;;;;;;5071722;28;20119;-78
2021/06/30 01:22:27;;;;;;;16.13;8.30;;;665.90;2355.20;;;;;;5072933;28;20033;-81
2021/06/30 01:24:53;;;;;;;16.48;8.45;;;665.90;2355.20;;;;;;5072844;28;20124;-75
2021/06/30 01:27:21;;;;;;;13.52;8.48;;;665.90;2380.80;;;;;;5072746;28;20024;-78
2021/06/30 01:29:47;;;;;;;16.83;8.00;;;665.90;2380.80;;;;;;5072784;28;20425;-78
2021/06/30 01:32:14;;;;;;;13.13;7.88;;;665.80;2380.80;;;;;;5073014;28;20444;-74
2021/06/30 01:34:40;;;;;;;12.93;8.10;;;665.90;2380.80;;;;;;5071452;28;20077;-73
2021/06/30 01:37:06;;;;;;;12.57;8.15;;;665.80;2380.80;;;;;;5072537;28;20031;-75
2021/06/30 01:39:32;;;;;;;13.18;8.27;;;665.80;2406.40;;;;;;5072677;28;20028;-74
2021/06/30 01:41:58;;;;;;;14.43;8.63;;;665.80;2406.40;;;;;;5072434;28;20037;-77
2021/06/30 01:44:24;;;;;;;10.65;7.88;;;665.80;2406.40;;;;;;5072576;28;20020;-74
2021/06/30 01:46:50;;;;;;;13.38;8.43;;;665.70;2406.40;;;;;;5072974;28;20424;-74
2021/06/30 01:49:16;;;;;;;14.98;8.07;;;665.60;2432.00;;;;;;5072862;28;20107;-74
2021/06/30 01:51:41;;;;;;;11.10;7.70;;;640.90;2406.40;;;;;;5072487;28;20029;-74
2021/06/30 01:54:15;;;;;;;13.80;8.05;;;640.90;2432.00;;;;;;5072315;28;20021;-76
2021/06/30 01:56:42;;;;;;;11.07;7.68;;;640.80;2432.00;;;;;;5072346;28;20490;-78
2021/06/30 01:59:13;;;;;;;13.45;8.15;;;640.90;2432.00;;;;;;5072250;28;20123;-73
2021/06/30 02:01:40;;;;;;;13.30;7.75;;;640.80;2432.00;;;;;;5072122;28;20024;-74
2021/06/30 02:04:07;;;;;;;12.70;7.95;;;640.90;2432.00;;;;;;5072286;28;20108;-73
2021/06/30 02:06:43;;;;;;;11.80;7.65;;;640.80;2432.00;;;;;;5072445;28;20138;-79
2021/06/30 02:09:11;;;;;;;13.40;7.72;;;640.80;2432.00;;;;;;5072270;28;20100;-80
2021/06/30 02:11:37;;;;;;;14.80;8.02;;;640.70;2432.00;;;;;;5062421;28;20082;-80
2021/06/30 02:14:07;;;;;;;12.55;7.43;;;640.70;2432.00;;;;;;5052331;28;20033;-79
2021/06/30 02:16:34;;;;;;;12.52;7.18;;;640.70;2432.00;;;;;;5051991;28;20043;-79
2021/06/30 02:19:06;;;;;;;14.88;7.65;;;640.60;2432.00;;;;;;5052024;28;20041;-73
2021/06/30 02:21:33;;;;;;;15.93;8.32;;;640.60;2432.00;;;;;;5054325;28;20033;-74
2021/06/30 02:23:59;;;;;;;13.00;7.45;;;640.60;2432.00;;;;;;5056385;28;20013;-75
2021/06/30 02:26:26;;;;;;;14.27;7.82;;;640.50;2432.00;;;;;;5056165;28;20558;-74
2021/06/30 02:28:52;;;;;;;12.75;7.70;;;640.40;2432.00;;;;;;5056315;28;20033;-73
2021/06/30 02:31:18;;;;;;;9.90;7.28;;;640.40;2432.00;;;;;;5056241;28;20028;-74
2021/06/30 02:33:47;;;;;;;15.95;7.55;;;640.30;2432.00;;;;;;5056035;28;20025;-73
2021/06/30 02:36:12;;;;;;;13.57;7.88;;;640.20;2432.00;;;;;;5056178;28;20095;-74
2021/06/30 02:38:39;;;;;;;12.73;7.45;;;640.20;2432.00;;;;;;5055854;28;20126;-78
2021/06/30 02:41:05;;;;;;;14.70;7.55;;;640.20;2432.00;;;;;;5055903;28;20544;-75
2021/06/30 02:43:31;;;;;;;14.18;7.25;;;640.10;2432.00;;;;;;5056015;28;20487;-74
2021/06/30 02:45:57;;;;;;;11.15;7.53;;;640.20;2432.00;;;;;;5055553;28;20036;-74
2021/06/30 02:48:25;;;;;;;13.98;7.68;;;640.20;2432.00;;;;;;5066772;28;20031;-73
2021/06/30 02:50:54;;;;;;;13.85;7.97;;;640.20;2432.00;;;;;;5075511;28;20020;-74
2021/06/30 02:53:20;;;;;;;12.80;7.90;;;640.20;2432.00;;;;;;5076000;28;20043;-78
2021/06/30 02:55:46;;;;;;;13.82;7.53;;;640.10;2432.00;;;;;;5075116;28;20505;-79
2021/06/30 02:58:12;;;;;;;13.77;7.63;;;640.10;2432.00;;;;;;5075591;28;20024;-76
2021/06/30 03:00:37;;;;;;;15.52;7.57;;;640.10;2432.00;;;;;;5075466;28;20020;-74
2021/06/30 03:03:03;;;;;;;13.23;7.20;;;640.10;2432.00;;;;;;5075146;28;20024;-74
2021/06/30 03:05:29;;;;;;;15.65;7.78;;;640.10;2432.00;;;;;;5075435;28;20031;-73
2021/06/30 03:07:55;;;;;;;13.88;8.18;;;640.10;2432.00;;;;;;5075267;28;20043;-73
2021/06/30 03:10:20;;;;;;;12.43;7.90;;;640.00;2432.00;;;;;;5075516;28;20025;-75
2021/06/30 03:12:47;;;;;;;11.70;7.50;;;640.00;2432.00;;;;;;5073710;28;20021;-82
2021/06/30 03:15:14;;;;;;;14.98;7.65;;;640.10;2432.00;;;;;;5075190;28;20539;-85
2021/06/30 03:17:39;;;;;;;11.95;7.35;;;640.00;2432.00;;;;;;5075027;28;20020;-85
2021/06/30 03:20:08;;;;;;;12.25;8.02;;;640.10;2432.00;;;;;;5069814;28;20497;-83
2021/06/30 03:22:34;;;;;;;17.45;7.70;;;640.10;2432.00;;;;;;5055104;28;20029;-81
2021/06/30 03:25:00;;;;;;;12.07;7.20;;;640.00;2432.00;;;;;;5054872;28;20052;-78
2021/06/30 03:27:25;;;;;;;11.43;7.05;;;640.00;2432.00;;;;;;5062314;28;20020;-74
2021/06/30 03:29:51;;;;;;;12.85;7.25;;;640.00;2432.00;;;;;;5059546;28;20029;-74
2021/06/30 03:32:17;;;;;;;11.60;7.50;;;640.00;2432.00;;;;;;5055045;28;20044;-79
2021/06/30 03:34:42;;;;;;;14.07;7.30;;;640.00;2432.00;;;;;;5054917;28;20040;-73
2021/06/30 03:37:08;;;;;;;16.38;7.25;;;640.10;2432.00;;;;;;5054814;28;20070;-81
2021/06/30 03:39:37;;;;;;;13.82;7.28;;;640.10;2432.00;;;;;;5054816;28;20039;-73
2021/06/30 03:42:03;;;;;;;13.85;7.30;;;640.00;2432.00;;;;;;5054876;28;20043;-78
2021/06/30 03:44:29;;;;;;;17.05;7.63;;;640.00;2432.00;;;;;;5054836;28;20021;-84
2021/06/30 03:46:54;;;;;;;14.27;7.10;;;640.10;2432.00;;;;;;5054589;28;20033;-83
2021/06/30 03:49:20;;;;;;;12.68;7.40;;;640.10;2432.00;;;;;;5054540;28;20088;-84
2021/06/30 03:51:46;;;;;;;13.68;7.55;;;640.10;2432.00;;;;;;5054595;28;20029;-80
2021/06/30 03:54:12;;;;;;;16.40;7.15;;;640.20;2432.00;;;;;;5054568;28;20036;-73
2021/06/30 03:56:38;;;;;;;14.07;7.38;;;640.20;2432.00;;;;;;5060175;28;20025;-78
2021/06/30 03:59:04;;;;;;;18.42;8.23;;;640.20;2432.00;;;;;;5054432;28;20414;-75
2021/06/30 04:01:29;;;;;;;17.67;7.97;;;640.20;2432.00;;;;;;5054722;28;20078;-79
2021/06/30 04:03:56;;;;;;;16.75;7.80;;;640.20;2432.00;;;;;;5067636;28;20483;-82
2021/06/30 04:06:22;;;;;;;15.55;7.88;;;640.30;2432.00;;;;;;5054308;28;20017;-82
2021/06/30 04:08:48;;;;;;;16.98;7.85;;;640.40;2432.00;;;;;;5054315;28;20025;-85
2021/06/30 04:11:15;;;;;;;14.80;8.20;;;640.40;2432.00;;;;;;5062761;28;20025;-85
2021/06/30 04:13:40;;;;;;;15.32;8.18;;;640.50;2432.00;;;;;;5054294;28;20039;-74
2021/06/30 04:16:06;;;;;;;17.98;8.52;;;640.50;2432.00;;;;;;5053947;28;20020;-79
2021/06/30 04:18:32;;;;;;;14.10;8.30;;;640.60;2432.00;;;;;;5054210;28;20025;-75
2021/06/30 04:20:58;;;;;;;15.25;7.88;;;640.60;2432.00;;;;;;5054013;28;20053;-73
2021/06/30 04:23:23;;;;;;;17.10;8.05;;;640.60;2432.00;;;;;;5054075;28;20021;-73
2021/06/30 04:25:52;;;;;;;18.25;9.00;;;640.70;2432.00;;;;;;5053971;28;20132;-77
2021/06/30 04:28:18;;;;;;;19.35;9.20;;;640.70;2432.00;;;;;;5053932;28;20450;-76
2021/06/30 04:30:43;;;;;;;20.77;8.82;;;640.70;2432.00;;;;;;5054073;28;20049;-77
2021/06/30 04:33:10;;;;;;;14.20;8.32;;;640.90;2432.00;;;;;;5053789;28;20100;-80
2021/06/30 04:35:35;;;;;;;18.90;8.38;;;640.90;2432.00;;;;;;5060672;28;20032;-77
2021/06/30 04:38:03;;;;;;;16.20;8.90;;;640.90;2432.00;;;;;;5073831;28;20546;-77
2021/06/30 04:40:29;;;;;;;15.45;8.65;;;640.90;2432.00;;;;;;5064165;28;20025;-82
2021/06/30 04:42:54;;;;;;;19.00;9.25;;;665.60;2432.00;;;;;;5073836;28;20454;-80
2021/06/30 04:45:20;;;;;;;13.93;8.68;;;665.70;2432.00;;;;;;5073006;28;20033;-80
2021/06/30 04:47:46;;;;;;;15.10;8.10;;;665.70;2432.00;;;;;;5073493;28;20048;-80
2021/06/30 04:50:12;;;;;;;14.23;8.10;;;665.70;2432.00;;;;;;5073651;28;20051;-79
2021/06/30 04:55:22;;;;;;;13.95;8.63;;;665.80;2432.00;;;;;;5073585;28;20569;-84
2021/06/30 04:57:48;;;;;;;13.35;8.73;;;691.20;2432.00;;;;;;5073272;28;20024;-79
2021/06/30 05:00:14;;;;;;;15.88;9.07;;;742.80;2432.00;;;;;;5073340;28;20016;-73
2021/06/30 05:02:39;;;;;;;14.60;8.70;;;793.90;2406.40;;;;;;5073180;28;20017;-77
2021/06/30 05:05:06;;;;;;;15.15;8.43;;;819.80;2252.80;;;;;;5073511;28;20017;-82
2021/06/30 05:07:31;;;;;;;14.02;8.43;;;845.70;2150.40;;;;;;5073400;28;20100;-77
2021/06/30 05:09:57;;;;;;;16.70;8.73;;;896.10;2022.40;;;;;;5073021;28;20163;-79
2021/06/30 05:12:23;;;;;;;12.40;7.95;;;870.80;2048.00;;;;;;5072933;28;20037;-85
2021/06/30 05:14:48;;;;;;;14.63;8.48;;;921.60;1971.20;;;;;;5071501;28;20560;-82
2021/06/30 05:17:14;;;;;;;17.27;9.40;;;845.70;2048.00;;;;;;5073087;28;20100;-82
2021/06/30 05:19:40;;;;;;;18.75;9.85;;;794.00;2176.00;;;;;;5071482;28;20024;-82
2021/06/30 05:22:06;;;;;;;15.52;9.98;;;845.30;2073.60;;;;;;5052898;28;20025;-83
2021/06/30 05:24:31;;;;;;;15.77;10.88;;;845.20;2073.60;;;;;;5052827;28;20032;-82
2021/06/30 05:26:57;;;;;;;15.55;10.80;;;871.20;1996.80;;;;;;5052894;28;20025;-85
2021/06/30 05:29:23;;;;;;;20.83;10.90;;;921.60;1920.00;;;;;;5053016;28;20082;-84
2021/06/30 05:31:48;;;;;;;18.52;10.45;;;947.40;1843.20;;;;;;5052977;28;20467;-84
2021/06/30 05:34:14;;;;;;;21.83;9.60;;;947.50;1817.60;;;;;;5052810;28;20032;-85
2021/06/30 05:36:47;;;;;;;20.30;9.70;;;922.30;1817.60;;;;;;5052686;28;20029;-79
2021/06/30 05:39:17;;;;;;;15.45;9.13;;;871.30;1894.40;;;;;;5052770;28;20111;-83
2021/06/30 05:41:44;;;;;;;16.77;9.10;;;845.60;1971.20;;;;;;5052494;28;20391;-80
2021/06/30 05:44:11;;;;;;;17.98;9.63;;;820.00;2022.40;;;;;;5052678;28;20028;-85
2021/06/30 05:46:39;;;;;;;17.02;9.25;;;819.20;2073.60;;;;;;5052729;28;20048;-84
2021/06/30 05:49:06;;;;;;;15.48;9.60;;;794.00;2150.40;;;;;;5052510;28;20100;-80
2021/06/30 05:51:31;;;;;;;18.50;9.50;;;768.50;2176.00;;;;;;5052531;28;20021;-83
2021/06/30 05:53:58;;;;;;;15.75;8.93;;;768.00;2227.20;;;;;;5052340;28;20253;-85
2021/06/30 05:56:25;;;;;;;16.55;9.00;;;743.00;2278.40;;;;;;5060518;28;20502;-87
2021/06/30 05:58:51;;;;;;;12.95;8.40;;;742.80;2304.00;;;;;;5052275;28;20372;-79
2021/06/30 06:01:16;;;;;;;16.88;8.52;;;742.60;2329.60;;;;;;5060528;28;20054;-85
2021/06/30 06:03:42;;;;;;;14.65;8.73;;;742.50;2329.60;;;;;;5071990;28;20025;-84
2021/06/30 06:06:08;;;;;;;17.45;8.68;;;742.50;2355.20;;;;;;5072320;28;20082;-74
2021/06/30 06:08:34;;;;;;;16.67;8.35;;;742.80;2329.60;;;;;;5072261;28;20024;-74
2021/06/30 06:11:00;;;;;;;13.73;8.50;;;742.80;2355.20;;;;;;5062911;28;20021;-73
2021/06/30 06:13:26;;;;;;;15.60;8.60;;;742.70;2329.60;;;;;;5054156;28;20021;-75
2021/06/30 06:15:52;;;;;;;17.05;9.35;;;742.70;2355.20;;;;;;5056148;28;20013;-73
2021/06/30 06:18:18;;;;;;;18.27;8.60;;;742.80;2329.60;;;;;;5066792;28;20032;-76
2021/06/30 06:20:44;;;;;;;13.20;8.93;;;742.90;2355.20;;;;;;5068732;28;20097;-79
2021/06/30 06:23:10;;;;;;;14.95;9.15;;;742.90;2355.20;;;;;;5071234;28;20099;-84
2021/06/30 06:25:36;;;;;;;16.42;8.38;;;743.00;2355.20;;;;;;5060589;28;20032;-81
2021/06/30 06:28:04;;;;;;;13.73;8.75;;;743.00;2329.60;;;;;;5055216;28;20044;-82
2021/06/30 06:30:30;;;;;;;16.85;8.60;;;743.00;2329.60;;;;;;5051845;28;20479;-75
2021/06/30 06:32:56;;;;;;;13.85;8.30;;;743.10;2329.60;;;;;;5054575;28;20033;-77
2021/06/30 06:35:21;;;;;;;14.93;8.10;;;743.20;2329.60;;;;;;5070789;28;20023;-80
2021/06/30 06:37:48;;;;;;;11.32;8.15;;;743.30;2329.60;;;;;;5071783;28;20036;-78
2021/06/30 06:40:15;;;;;;;17.27;8.00;;;743.30;2304.00;;;;;;5071732;28;20024;-76
2021/06/30 06:42:41;;;;;;;15.77;7.63;;;768.20;2304.00;;;;;;5072576;28;20017;-80
2021/06/30 06:45:08;;;;;;;20.67;8.43;;;768.50;2278.40;;;;;;5060115;28;20025;-79
2021/06/30 06:47:35;;;;;;;18.25;8.40;;;768.40;2278.40;;;;;;5072388;28;20024;-80
2021/06/30 06:50:01;;;;;;;15.27;8.48;;;768.70;2278.40;;;;;;5072829;28;20024;-80
2021/06/30 06:52:26;;;;;;;13.43;8.18;;;768.80;2278.40;;;;;;5071926;28;20027;-73
2021/06/30 06:54:52;;;;;;;11.48;7.15;;;793.70;2278.40;;;;;;5071640;28;20021;-78
2021/06/30 06:57:18;;;;;;;17.60;7.70;;;794.10;2252.80;;;;;;5071847;28;20398;-77
2021/06/30 06:59:44;;;;;;;15.98;7.90;;;794.30;2252.80;;;;;;5071549;28;20029;-75
2021/06/30 07:02:09;;;;;;;13.18;7.47;;;794.50;2227.20;;;;;;5071302;28;20020;-74
2021/06/30 07:04:36;;;;;;;17.48;7.60;;;794.40;2227.20;;;;;;5071976;28;20020;-75
2021/06/30 07:07:02;;;;;;;11.70;7.25;;;819.20;2227.20;;;;;;5072949;28;20024;-74
2021/06/30 07:09:27;;;;;;;14.52;7.45;;;819.50;2201.60;;;;;;5075315;28;20013;-74
2021/06/30 07:11:53;;;;;;;14.55;7.45;;;819.60;2201.60;;;;;;5075522;28;20036;-78
2021/06/30 07:14:19;;;;;;;12.20;6.88;;;820.00;2176.00;;;;;;5075499;28;20792;-79
2021/06/30 07:16:45;;;;;;;13.40;7.30;;;820.10;2176.00;;;;;;5075383;28;20048;-79
2021/06/30 07:19:10;;;;;;;12.02;7.05;;;845.10;2150.40;;;;;;5075070;28;20094;-75
2021/06/30 07:21:36;;;;;;;12.88;7.40;;;870.70;2048.00;;;;;;5057634;28;20031;-75
2021/06/30 07:24:03;;;;;;;15.55;7.15;;;922.50;1945.60;;;;;;5055206;28;20467;-74
2021/06/30 07:26:30;;;;;;;13.13;6.93;;;999.00;1792.00;;;;;;5055011;28;20466;-73
2021/06/30 07:28:56;;;;;;;10.85;6.28;;;1075.30;1638.40;;;;;;5055104;28;20029;-72
2021/06/30 07:31:22;;;;;;;13.57;6.38;;;1101.00;1587.20;;;;;;5055045;28;20399;-73
2021/06/30 07:33:49;;;;;;;12.43;5.35;;;1127.30;1536.00;;;;;;5054899;28;20570;-74
2021/06/30 07:36:16;;;;;;;12.18;5.75;;;1152.20;1433.60;;;;;;5054901;28;20029;-75
2021/06/30 07:38:42;;;;;;;14.05;5.75;;;1152.90;1382.40;;;;;;5054739;28;20100;-75
2021/06/30 07:41:08;;;;;;;10.75;5.90;;;1177.60;1331.20;;;;;;5054798;28;20031;-73
2021/06/30 07:43:33;;;;;;;14.90;6.20;;;1101.40;1408.00;;;;;;5054767;28;20108;-73
2021/06/30 07:45:59;;;;;;;12.50;5.80;;;1049.90;1484.80;;;;;;5054913;28;20535;-75
2021/06/30 07:48:25;;;;;;;11.00;5.45;;;999.10;1510.40;;;;;;5054654;28;20025;-75
2021/06/30 07:50:51;;;;;;;13.05;5.55;;;973.40;1536.00;;;;;;5054831;28;20471;-76
2021/06/30 07:53:16;;;;;;;11.30;5.63;;;973.30;1536.00;;;;;;5054633;28;20033;-77
2021/06/30 07:55:42;;;;;;;13.25;5.40;;;973.70;1561.60;;;;;;5060137;28;20049;-78
2021/06/30 07:58:08;;;;;;;12.77;5.25;;;1024.40;1484.80;;;;;;5054610;28;20557;-77
2021/06/30 08:00:34;;;;;;;13.18;5.30;;;1075.90;1356.80;;;;;;5054551;28;20029;-75
2021/06/30 08:03:00;;;;;;;10.88;5.03;;;1126.70;1331.20;;;;;;5057967;28;20082;-75
2021/06/30 08:05:25;;;;;;;12.85;5.25;;;1152.60;1280.00;;;;;;5054605;28;20063;-73
2021/06/30 08:07:51;;;;;;;14.18;4.95;;;1152.40;1254.40;;;;;;5054511;28;20079;-73
2021/06/30 08:10:17;;;;;;;12.70;5.05;;;1178.50;1228.80;;;;;;5054613;28;20025;-71
2021/06/30 08:12:43;;;;;;;12.90;4.80;;;1229.40;1203.20;;;;;;5054248;28;20033;-77
2021/06/30 08:15:10;;;;;;;11.65;5.60;;;1229.70;1177.60;;;;;;5054808;28;20029;-73
2021/06/30 08:17:36;;;;;;;13.63;5.45;;;1255.10;1177.60;;;;;;5054138;28;20568;-74
2021/06/30 08:20:03;;;;;;;15.07;5.65;;;1254.80;1203.20;;;;;;5053169;28;20479;-76
2021/06/30 08:22:29;;;;;;;15.05;5.65;;;1254.50;1203.20;;;;;;5054126;28;20025;-74
2021/06/30 08:24:55;;;;;;;11.38;5.72;;;1228.90;1203.20;;;;;;5053934;28;20045;-75
2021/06/30 08:27:22;;;;;;;15.13;5.22;;;1255.10;1177.60;;;;;;5054338;28;20108;-80
2021/06/30 08:29:48;;;;;;;13.35;5.22;;;1305.90;1126.40;;;;;;5055112;28;20045;-73
2021/06/30 08:32:14;;;;;;;12.80;6.13;;;1280.50;1152.00;;;;;;5054258;28;20032;-74
2021/06/30 08:34:40;;;;;;;10.27;5.15;;;1255.30;1152.00;;;;;;5054136;28;20024;-73
2021/06/30 08:37:07;;;;;;;12.98;5.40;;;1280.20;1126.40;;;;;;5053798;28;20448;-73
2021/06/30 08:39:33;;;;;;;14.68;5.15;;;1254.90;1126.40;;;;;;5054099;28;20035;-72
2021/06/30 08:42:00;;;;;;;12.50;5.30;;;1254.60;1152.00;;;;;;5053504;28;20021;-74
2021/06/30 08:44:26;;;;;;;16.33;6.13;;;1229.30;1152.00;;;;;;5053754;28;20044;-75
2021/06/30 08:46:56;;;;;;;13.00;5.15;;;1127.30;1228.80;;;;;;5053579;28;20484;-73
2021/06/30 08:49:25;;;;;;;13.82;5.40;;;1075.90;1254.40;;;;;;5053847;28;20032;-73
2021/06/30 08:51:53;;;;;;;12.07;5.15;;;1050.20;1331.20;;;;;;5053373;28;20475;-74
2021/06/30 08:54:20;;;;;;;12.93;5.88;;;999.30;1331.20;;;;;;5053854;28;20036;-73
2021/06/30 08:56:47;;;;;;;12.10;5.25;;;973.50;1408.00;;;;;;5071866;28;20035;-76
2021/06/30 08:59:13;;;;;;;16.70;5.40;;;973.10;1382.40;;;;;;5070867;28;20103;-73
2021/06/30 09:01:39;;;;;;;13.38;5.47;;;948.10;1356.80;;;;;;5054733;28;20125;-73
2021/06/30 09:04:07;;;;;;;17.50;5.93;;;948.00;1356.80;;;;;;5058785;28;20021;-72
2021/06/30 09:06:33;;;;;;;15.07;4.80;;;947.60;1356.80;;;;;;5056349;28;20120;-72
2021/06/30 09:09:01;;;;;;;14.32;5.30;;;947.30;1382.40;;;;;;5057245;28;20549;-72
2021/06/30 09:11:29;;;;;;;14.90;5.05;;;947.20;1408.00;;;;;;5064875;28;20017;-73
2021/06/30 09:14:19;;;;;;;16.23;5.03;;;922.30;1408.00;;;;;;5055622;28;20108;-73
2021/06/30 09:16:57;;;;;;;11.65;5.53;;;922.50;1382.40;;;;;;5062079;28;20474;-75
2021/06/30 09:19:48;;;;;;;12.63;5.20;;;922.50;1408.00;;;;;;5056601;28;20024;-73
2021/06/30 09:22:15;;;;;;;14.07;5.47;;;922.40;1408.00;;;;;;5065006;28;20047;-74
2021/06/30 09:24:41;;;;;;;14.57;5.50;;;922.10;1433.60;;;;;;5054812;28;20033;-74
2021/06/30 09:27:09;;;;;;;11.45;4.97;;;922.00;1459.20;;;;;;5054480;28;20013;-72
2021/06/30 09:29:37;;;;;;;12.75;4.75;;;922.00;1433.60;;;;;;5053590;28;20029;-74
2021/06/30 09:32:12;;;;;;;12.70;4.82;;;921.80;1433.60;;;;;;5058069;28;20036;-75
2021/06/30 09:34:38;;;;;;;14.32;5.05;;;922.00;1459.20;;;;;;5055677;28;20025;-80
2021/06/30 09:37:05;;;;;;;12.13;4.78;;;922.10;1433.60;;;;;;5063304;28;20483;-79
2021/06/30 09:39:53;;;;;;;12.18;4.97;;;922.30;1408.00;;;;;;5054467;28;20025;-77
2021/06/30 09:42:18;;;;;;;13.02;4.50;;;922.40;1408.00;;;;;;5054770;28;20059;-76
2021/06/30 09:44:44;;;;;;;12.75;4.50;;;947.20;1382.40;;;;;;5054101;28;20017;-76
2021/06/30 09:47:10;;;;;;;13.35;4.90;;;922.50;1382.40;;;;;;5062015;28;20090;-79
2021/06/30 09:49:38;;;;;;;13.95;4.88;;;922.10;1382.40;;;;;;5055762;28;20017;-77
2021/06/30 09:52:16;;;;;;;15.32;4.70;;;922.00;1408.00;;;;;;5057080;28;20052;-77
2021/06/30 09:54:44;;;;;;;16.75;5.13;;;922.30;1408.00;;;;;;5056021;28;20069;-78
2021/06/30 09:57:12;;;;;;;14.07;5.03;;;922.40;1433.60;;;;;;5059400;28;20017;-77
2021/06/30 09:59:40;;;;;;;15.93;4.80;;;922.30;1408.00;;;;;;5053935;28;20509;-76
2021/06/30 10:02:14;;;;;;;12.35;4.90;;;922.50;1408.00;;;;;;5057415;28;20017;-77
2021/06/30 10:04:58;;;;;;;12.80;4.68;;;947.20;1382.40;;;;;;5064802;28;20033;-75
2021/06/30 10:07:28;;;;;;;12.75;4.90;;;947.20;1408.00;;;;;;5057455;28;20100;-77
2021/06/30 10:10:01;;;;;;;13.90;4.72;;;947.20;1382.40;;;;;;5054530;28;20437;-77
2021/06/30 10:12:29;;;;;;;15.55;4.88;;;947.20;1382.40;;;;;;5056721;28;20506;-77
2021/06/30 10:14:57;;;;;;;14.23;4.40;;;922.50;1382.40;;;;;;5054197;28;20037;-77
2021/06/30 10:17:25;;;;;;;14.77;5.18;;;922.50;1356.80;;;;;;5053686;28;20079;-75
2021/06/30 10:19:53;;;;;;;14.35;4.93;;;922.50;1382.40;;;;;;5057161;28;20040;-78
2021/06/30 10:22:21;;;;;;;11.25;4.57;;;947.20;1331.20;;;;;;5065048;28;20067;-77
2021/06/30 10:24:46;;;;;;;14.95;4.70;;;922.50;1356.80;;;;;;5055901;28;20087;-77
2021/06/30 10:27:14;;;;;;;14.07;4.30;;;922.50;1356.80;;;;;;5053154;28;20033;-76
2021/06/30 10:29:43;;;;;;;11.13;4.10;;;922.50;1356.80;;;;;;5052850;28;20025;-78
2021/06/30 10:32:11;;;;;;;14.48;4.60;;;922.50;1356.80;;;;;;5066727;28;20021;-77
2021/06/30 10:34:51;;;;;;;10.68;4.25;;;922.40;1356.80;;;;;;5054654;28;20028;-77
2021/06/30 10:37:21;;;;;;;;;;;922.50;1356.80;;;;;;5067232;28;20033;-74
2021/06/30 10:39:53;;;;;;;12.88;4.35;;;922.50;1331.20;;;;;;5053740;28;19905;-76
2021/06/30 10:42:32;;;;;;;13.32;4.32;;;922.50;1356.80;;;;;;5067982;28;20429;-75
2021/06/30 10:45:13;;;;;;;15.40;4.40;;;947.20;1356.80;;;;;;5062204;28;20021;-75
2021/06/30 10:47:47;;;;;;;13.10;4.32;;;947.20;1382.40;;;;;;5070408;28;20246;-77
2021/06/30 10:50:19;;;;;;;13.15;4.30;;;922.50;1356.80;;;;;;5063220;28;20028;-76
2021/06/30 10:52:46;;;;;;;10.88;4.35;;;922.50;1408.00;;;;;;5058302;28;20123;-76
2021/06/30 10:55:35;;;;;;;14.80;4.20;;;947.20;1408.00;;;;;;5063602;28;20024;-75
2021/06/30 10:58:16;;;;;;;12.07;4.13;;;947.40;1382.40;;;;;;5067758;28;20040;-76
2021/06/30 11:01:05;;;;;;;14.75;4.50;;;947.30;1408.00;;;;;;5057546;28;20425;-78
2021/06/30 11:03:49;;;;;;;11.45;4.00;;;947.40;1382.40;;;;;;5059112;28;20035;-76
2021/06/30 11:06:17;;;;;;;9.77;3.78;;;947.70;1382.40;;;;;;5058535;28;20017;-77
2021/06/30 11:08:55;;;;;;;11.55;4.38;;;947.40;1382.40;;;;;;5058320;28;20028;-77
2021/06/30 11:11:47;;;;;;;12.90;4.57;;;947.60;1356.80;;;;;;5057675;28;20135;-75
2021/06/30 11:14:20;;;;;;;12.32;4.90;;;947.40;1382.40;;;;;;5051344;28;20032;-76
2021/06/30 11:16:46;;;;;;;12.43;4.38;;;947.40;1382.40;;;;;;5056989;28;20029;-77
2021/06/30 11:19:18;;;;;;;14.68;4.60;;;947.50;1382.40;;;;;;5056408;28;20017;-76
2021/06/30 11:21:44;;;;;;;16.10;4.30;;;947.70;1356.80;;;;;;5069690;28;20025;-78
2021/06/30 11:24:32;;;;;;;12.52;4.15;;;947.80;1382.40;;;;;;5056992;28;20160;-77
2021/06/30 11:26:58;;;;;;;12.63;3.90;;;948.00;1382.40;;;;;;5057114;28;20043;-78
2021/06/30 11:32:08;;;;;;;15.43;4.68;;;948.10;1382.40;;;;;;5058478;28;20040;-77
2021/06/30 11:34:38;;;;;;;14.57;4.40;;;948.00;1382.40;;;;;;5057651;28;20092;-76
2021/06/30 11:37:05;;;;;;;15.75;4.07;;;948.00;1382.40;;;;;;5058969;28;20021;-76
2021/06/30 11:39:31;;;;;;;12.32;4.35;;;972.90;1408.00;;;;;;5056674;28;20021;-77
2021/06/30 11:41:58;;;;;;;11.68;4.10;;;973.30;1382.40;;;;;;5057198;28;20016;-78
2021/06/30 11:44:35;;;;;;;14.07;4.50;;;973.70;1382.40;;;;;;5055782;28;20032;-79
2021/06/30 11:47:03;;;;;;;13.60;4.45;;;973.70;1356.80;;;;;;5058134;28;20021;-76
2021/06/30 11:49:29;;;;;;;15.00;4.20;;;998.80;1356.80;;;;;;5066468;28;20426;-75
2021/06/30 11:51:59;;;;;;;17.73;4.50;;;999.00;1356.80;;;;;;5058152;28;20391;-76
2021/06/30 11:54:26;;;;;;;13.05;4.05;;;999.30;1331.20;;;;;;5055294;28;20029;-78
2021/06/30 11:56:53;;;;;;;13.32;4.00;;;999.10;1305.60;;;;;;5065205;28;20029;-74
2021/06/30 11:59:22;;;;;;;18.13;4.72;;;999.20;1331.20;;;;;;5073577;28;20047;-84
2021/06/30 12:01:49;;;;;;;14.25;4.50;;;999.20;1331.20;;;;;;5066973;28;20032;-77
2021/06/30 12:04:16;;;;;;;15.50;4.75;;;1024.10;1305.60;;;;;;5056918;28;20083;-74
2021/06/30 12:06:45;;;;;;;14.68;4.18;;;1024.20;1331.20;;;;;;5056831;28;20029;-77
2021/06/30 12:09:41;;;;;;;15.02;4.10;;;1024.20;1331.20;;;;;;5058223;28;20024;-75
2021/06/30 12:12:11;;;;;;;16.45;4.35;;;1024.20;1305.60;;;;;;5057270;28;20032;-80
2021/06/30 12:14:36;;;;;;;;;;;1024.50;1305.60;;;;;;5056951;28;20025;-80
2021/06/30 12:17:07;;;;;;;13.10;4.28;;;1024.20;1305.60;;;;;;5055421;28;19911;-83